Sopris, Colorado
Current Conditions -  °F | °C
As of 12:54 PM on Thursday 30 Oct 2014 (Local Time) from KTAD Reporting Station
Clear Clear  
Wind Chill: 61°   Ceiling: Unl
Heat Index: 61°   Visibility: 10mi
Dew Point: 22°   Wind: 8mph
Humidity: 22%   Direction: 110°ESE
Pressure: 30.37"   Gusts: NA
Location:  37.1661°N, 104.486°W
Report Text: KTAD 301854Z AUTO 11007KT 10SM CLR 16/M06 A3037 RMK AO2 SLP243 T01611056
Loading
Personal Weather Stations






























Interactive Weather Map
Tropical Storm Tracking
New forecast layout! Learn more

10-Day Weather Forecast

Advertisements
Track Severe Weather on mobile